Aérodrome :
LOGIN :

S'inscrire | Disclaimer

   EN    FR    IT 

 










Légende :    VFR   VFR Marginal   IFR   IFR Intensif   IFR Très Intensif
Visi : 
Plafond : 
>= 8 km
>= 3000ft
5 à 8 km
1000 à 3000 ft
1500m à 5 km
500 à 1000 ft
800 à 1500m
200 à 500 ft
< 800m
< 200 ft
Symboles :   Orages  Brouillard  Fortes neiges  Fortes précipitations  Vent > 20 kt
SIGMETs :   Divers  Orages  Givrage  Turbulence  Onde Orograph.  Cendres Volcan.







- Altitude de l'aérodrome : 25 ft
- Code IATA : QCY


EGXC - RAF Coningsby

DERNIER METAR :
  • 181350Z 16016KT 9999 FEW016 SCT080 OVC110 09/06 Q1004 BLU BECMG SCT016 WHT

METARs EXPIRÉS :
  • 181250Z 15016G30KT 9999 FEW040 BKN110 09/07 Q1005 BLU NOSIG
  • 181150Z 16016G28KT 9999 -RA FEW020 BKN070 09/07 Q1007 BLU NOSIG

TAF TAF EGXC
Valide du 18 à 15h jusqu'au 19 à 09h UTC


181357Z 1815/1909 16017G27KT 9999 FEW018 BKN045
BECMG 1815/1818 17013KT -RA BKN018
TEMPO 1815/1817 4000 RA
TEMPO 1817/1823 4000 RA BKN010
PROB30
TEMPO 1821/1823 BKN006
BECMG 1823/1901 NSW FEW010
Pas de NOTAMs connus pour ce terrain.
4 SIGMETs publiés pour la FIR London (EGTT) :
 
Onde orographique forte
EGTT SIGMET 08 VALID 181500/181900 EGRR
EGTT LONDON FIR SEV MTW FCST WI N5220 W00530 - N5500 W00530 - N5500 W00015 - N5024 W00255 - N4959 W00548 - N5220 W00530 FL030/250 STNR WKN=
Turbulence forte
EGTT SIGMET 07 VALID 181100/181500 EGRR
EGTT LONDON FIR SEV TURB FCST WI N5100 W00800 - N5117 W00728 - N4932 W00752 - N4932 W00800 - N5100 W00800 FL220/350 MOV E 10KT WKN=
Turbulence forte
EGTT SIGMET 06 VALID 181100/181500 EGRR
EGTT LONDON FIR SEV TURB FCST WI N5000 W00200 - N4919 W00530 - N5500 W00530 - N5500 E00100 - N5000 W00017 - N5000 W00200 SFC/FL060 MOV E 10KT WKN=
Onde orographique forte
EGTT SIGMET 05 VALID 181100/181500 EGRR
EGTT LONDON FIR SEV MTW FCST WI N5220 W00530 - N5500 W00530 - N5500 W00015 - N5024 W00255 - N4959 W00548 - N5220 W00530 - N5220 W00530 FL030/250 STNR NC=



MET'MAP, la Météo Aéronautique d'un coup d'oeil ! - Copyright ORBIFLY Décembre 2007 - Disclaimer

ORBIFLY MET'MAP TEAM :

Programmation & Développement : Alexandra Zaïnal
Conception & Développement : Baudouin d'Aumeries
Co-Programmation & Développement : Marc-Olivier Méhu
Soutien technique & logistique : Manuel Goepfert

Contact : metmap@orbifly.com




SOURCES & CREDITS :

   NOAA